sensor_id;sensor_type;location;lat;lon;timestamp;temperature;humidity
56478;DHT22;42382;53.210;5.772;2024-01-25T00:01:25;6.70;88.40
56478;DHT22;42382;53.210;5.772;2024-01-25T00:03:50;6.70;88.40
56478;DHT22;42382;53.210;5.772;2024-01-25T00:06:16;6.70;88.50
56478;DHT22;42382;53.210;5.772;2024-01-25T00:08:41;6.60;88.50
56478;DHT22;42382;53.210;5.772;2024-01-25T00:11:09;6.60;88.70
56478;DHT22;42382;53.210;5.772;2024-01-25T00:13:35;6.60;88.70
56478;DHT22;42382;53.210;5.772;2024-01-25T00:16:01;6.60;88.90
56478;DHT22;42382;53.210;5.772;2024-01-25T00:18:27;6.60;88.90
56478;DHT22;42382;53.210;5.772;2024-01-25T00:20:55;6.60;88.90
56478;DHT22;42382;53.210;5.772;2024-01-25T00:23:20;6.60;88.90
56478;DHT22;42382;53.210;5.772;2024-01-25T00:25:46;6.60;88.90
56478;DHT22;42382;53.210;5.772;2024-01-25T00:28:12;6.60;89.00
56478;DHT22;42382;53.210;5.772;2024-01-25T00:30:38;6.60;89.10
56478;DHT22;42382;53.210;5.772;2024-01-25T00:33:04;6.50;89.20
56478;DHT22;42382;53.210;5.772;2024-01-25T00:35:30;6.50;89.20
56478;DHT22;42382;53.210;5.772;2024-01-25T00:37:56;6.50;89.30
56478;DHT22;42382;53.210;5.772;2024-01-25T00:40:22;6.50;89.30
56478;DHT22;42382;53.210;5.772;2024-01-25T00:42:48;6.50;89.40
56478;DHT22;42382;53.210;5.772;2024-01-25T00:45:22;6.50;89.40
56478;DHT22;42382;53.210;5.772;2024-01-25T00:47:48;6.40;89.50
56478;DHT22;42382;53.210;5.772;2024-01-25T00:50:15;6.40;89.60
56478;DHT22;42382;53.210;5.772;2024-01-25T00:52:43;6.40;89.70
56478;DHT22;42382;53.210;5.772;2024-01-25T00:55:10;6.40;89.70
56478;DHT22;42382;53.210;5.772;2024-01-25T00:57:36;6.40;89.80
56478;DHT22;42382;53.210;5.772;2024-01-25T01:00:02;6.40;89.80
56478;DHT22;42382;53.210;5.772;2024-01-25T01:02:29;6.30;90.00
56478;DHT22;42382;53.210;5.772;2024-01-25T01:04:59;6.40;90.10
56478;DHT22;42382;53.210;5.772;2024-01-25T01:07:34;6.30;90.20
56478;DHT22;42382;53.210;5.772;2024-01-25T01:10:00;6.30;90.20
56478;DHT22;42382;53.210;5.772;2024-01-25T01:12:25;6.30;90.30
56478;DHT22;42382;53.210;5.772;2024-01-25T01:14:51;6.30;90.30
56478;DHT22;42382;53.210;5.772;2024-01-25T01:17:17;6.30;90.40
56478;DHT22;42382;53.210;5.772;2024-01-25T01:19:46;6.20;90.40
56478;DHT22;42382;53.210;5.772;2024-01-25T01:22:12;6.20;90.30
56478;DHT22;42382;53.210;5.772;2024-01-25T01:24:37;6.20;90.50
56478;DHT22;42382;53.210;5.772;2024-01-25T01:27:03;6.20;90.70
56478;DHT22;42382;53.210;5.772;2024-01-25T01:29:31;6.20;90.70
56478;DHT22;42382;53.210;5.772;2024-01-25T01:31:56;6.20;90.70
56478;DHT22;42382;53.210;5.772;2024-01-25T01:34:23;6.20;90.80
56478;DHT22;42382;53.210;5.772;2024-01-25T01:36:48;6.10;90.90
56478;DHT22;42382;53.210;5.772;2024-01-25T01:39:14;6.10;90.90
56478;DHT22;42382;53.210;5.772;2024-01-25T01:41:39;6.10;90.80
56478;DHT22;42382;53.210;5.772;2024-01-25T01:44:05;6.10;90.90
56478;DHT22;42382;53.210;5.772;2024-01-25T01:46:32;6.10;90.90
56478;DHT22;42382;53.210;5.772;2024-01-25T01:48:59;6.10;91.00
56478;DHT22;42382;53.210;5.772;2024-01-25T01:51:25;6.00;91.00
56478;DHT22;42382;53.210;5.772;2024-01-25T01:53:51;6.00;91.10
56478;DHT22;42382;53.210;5.772;2024-01-25T01:56:17;6.10;91.10
56478;DHT22;42382;53.210;5.772;2024-01-25T01:58:43;6.00;91.10
56478;DHT22;42382;53.210;5.772;2024-01-25T02:01:13;6.00;91.20
56478;DHT22;42382;53.210;5.772;2024-01-25T02:03:38;6.00;91.30
56478;DHT22;42382;53.210;5.772;2024-01-25T02:06:04;6.10;91.40
56478;DHT22;42382;53.210;5.772;2024-01-25T02:08:30;6.10;91.50
56478;DHT22;42382;53.210;5.772;2024-01-25T02:10:55;6.10;91.50
56478;DHT22;42382;53.210;5.772;2024-01-25T02:13:21;6.10;91.40
56478;DHT22;42382;53.210;5.772;2024-01-25T02:15:47;6.10;91.30
56478;DHT22;42382;53.210;5.772;2024-01-25T02:18:13;6.10;91.40
56478;DHT22;42382;53.210;5.772;2024-01-25T02:20:40;6.10;91.40
56478;DHT22;42382;53.210;5.772;2024-01-25T02:23:06;6.10;91.40
56478;DHT22;42382;53.210;5.772;2024-01-25T02:25:31;6.10;91.40
56478;DHT22;42382;53.210;5.772;2024-01-25T02:27:57;6.00;91.30
56478;DHT22;42382;53.210;5.772;2024-01-25T02:30:22;6.10;91.40
56478;DHT22;42382;53.210;5.772;2024-01-25T02:32:48;6.10;91.60
56478;DHT22;42382;53.210;5.772;2024-01-25T02:35:14;6.00;91.60
56478;DHT22;42382;53.210;5.772;2024-01-25T02:37:39;6.00;91.50
56478;DHT22;42382;53.210;5.772;2024-01-25T02:40:05;6.00;91.50
56478;DHT22;42382;53.210;5.772;2024-01-25T02:42:31;6.00;91.50
56478;DHT22;42382;53.210;5.772;2024-01-25T02:44:56;5.90;91.60
56478;DHT22;42382;53.210;5.772;2024-01-25T02:47:22;5.90;91.50
56478;DHT22;42382;53.210;5.772;2024-01-25T02:49:47;5.90;91.60
56478;DHT22;42382;53.210;5.772;2024-01-25T02:52:13;5.90;91.70
56478;DHT22;42382;53.210;5.772;2024-01-25T02:54:38;5.90;91.70
56478;DHT22;42382;53.210;5.772;2024-01-25T02:57:04;5.90;91.60
56478;DHT22;42382;53.210;5.772;2024-01-25T02:59:30;5.90;91.70
56478;DHT22;42382;53.210;5.772;2024-01-25T03:01:57;5.90;91.70
56478;DHT22;42382;53.210;5.772;2024-01-25T03:04:22;5.80;91.80
56478;DHT22;42382;53.210;5.772;2024-01-25T03:06:48;5.80;91.80
56478;DHT22;42382;53.210;5.772;2024-01-25T03:09:14;5.80;91.80
56478;DHT22;42382;53.210;5.772;2024-01-25T03:11:40;5.80;91.80
56478;DHT22;42382;53.210;5.772;2024-01-25T03:14:05;5.80;92.00
56478;DHT22;42382;53.210;5.772;2024-01-25T03:16:31;5.80;92.00
56478;DHT22;42382;53.210;5.772;2024-01-25T03:18:56;5.70;92.00
56478;DHT22;42382;53.210;5.772;2024-01-25T03:21:22;5.70;92.00
56478;DHT22;42382;53.210;5.772;2024-01-25T03:23:48;5.70;92.00
56478;DHT22;42382;53.210;5.772;2024-01-25T03:26:17;5.70;92.00
56478;DHT22;42382;53.210;5.772;2024-01-25T03:28:43;5.70;92.00
56478;DHT22;42382;53.210;5.772;2024-01-25T03:31:08;5.70;92.00
56478;DHT22;42382;53.210;5.772;2024-01-25T03:33:34;5.60;92.00
56478;DHT22;42382;53.210;5.772;2024-01-25T03:36:04;5.60;92.00
56478;DHT22;42382;53.210;5.772;2024-01-25T03:38:29;5.60;91.90
56478;DHT22;42382;53.210;5.772;2024-01-25T03:40:55;5.60;92.00
56478;DHT22;42382;53.210;5.772;2024-01-25T03:43:22;5.60;92.00
56478;DHT22;42382;53.210;5.772;2024-01-25T03:45:49;5.50;92.00
56478;DHT22;42382;53.210;5.772;2024-01-25T03:48:15;5.50;92.00
56478;DHT22;42382;53.210;5.772;2024-01-25T03:50:40;5.50;92.10
56478;DHT22;42382;53.210;5.772;2024-01-25T03:53:06;5.40;92.10
56478;DHT22;42382;53.210;5.772;2024-01-25T03:55:32;5.40;92.10
56478;DHT22;42382;53.210;5.772;2024-01-25T03:57:58;5.40;92.30
56478;DHT22;42382;53.210;5.772;2024-01-25T04:00:23;5.40;92.30
56478;DHT22;42382;53.210;5.772;2024-01-25T04:02:50;5.40;92.30
56478;DHT22;42382;53.210;5.772;2024-01-25T04:05:16;5.40;92.30
56478;DHT22;42382;53.210;5.772;2024-01-25T04:07:41;5.40;92.30
56478;DHT22;42382;53.210;5.772;2024-01-25T04:10:07;5.40;92.50
56478;DHT22;42382;53.210;5.772;2024-01-25T04:12:33;5.40;92.50
56478;DHT22;42382;53.210;5.772;2024-01-25T04:14:59;5.40;92.60
56478;DHT22;42382;53.210;5.772;2024-01-25T04:17:24;5.40;92.60
56478;DHT22;42382;53.210;5.772;2024-01-25T04:19:50;5.40;92.60
56478;DHT22;42382;53.210;5.772;2024-01-25T04:22:16;5.40;92.70
56478;DHT22;42382;53.210;5.772;2024-01-25T04:24:41;5.40;92.60
56478;DHT22;42382;53.210;5.772;2024-01-25T04:27:09;5.30;92.60
56478;DHT22;42382;53.210;5.772;2024-01-25T04:29:38;5.30;92.70
56478;DHT22;42382;53.210;5.772;2024-01-25T04:32:05;5.30;92.70
56478;DHT22;42382;53.210;5.772;2024-01-25T04:34:30;5.30;92.70
56478;DHT22;42382;53.210;5.772;2024-01-25T04:36:56;5.30;92.80
56478;DHT22;42382;53.210;5.772;2024-01-25T04:39:21;5.30;92.60
56478;DHT22;42382;53.210;5.772;2024-01-25T04:41:47;5.30;92.70
56478;DHT22;42382;53.210;5.772;2024-01-25T04:44:13;5.30;92.70
56478;DHT22;42382;53.210;5.772;2024-01-25T04:46:38;5.30;92.70
56478;DHT22;42382;53.210;5.772;2024-01-25T04:49:07;5.30;92.70
56478;DHT22;42382;53.210;5.772;2024-01-25T04:51:32;5.30;92.80
56478;DHT22;42382;53.210;5.772;2024-01-25T04:53:58;5.30;92.80
56478;DHT22;42382;53.210;5.772;2024-01-25T04:56:23;5.30;92.90
56478;DHT22;42382;53.210;5.772;2024-01-25T04:58:49;5.30;92.90
56478;DHT22;42382;53.210;5.772;2024-01-25T05:01:15;5.30;92.90
56478;DHT22;42382;53.210;5.772;2024-01-25T05:03:40;5.30;92.90
56478;DHT22;42382;53.210;5.772;2024-01-25T05:06:06;5.30;92.80
56478;DHT22;42382;53.210;5.772;2024-01-25T05:08:31;5.30;93.00
56478;DHT22;42382;53.210;5.772;2024-01-25T05:10:57;5.30;92.90
56478;DHT22;42382;53.210;5.772;2024-01-25T05:13:23;5.30;92.90
56478;DHT22;42382;53.210;5.772;2024-01-25T05:15:48;5.30;92.90
56478;DHT22;42382;53.210;5.772;2024-01-25T05:18:14;5.30;92.90
56478;DHT22;42382;53.210;5.772;2024-01-25T05:20:39;5.20;92.90
56478;DHT22;42382;53.210;5.772;2024-01-25T05:23:05;5.20;92.90
56478;DHT22;42382;53.210;5.772;2024-01-25T05:25:32;5.20;92.90
56478;DHT22;42382;53.210;5.772;2024-01-25T05:27:58;5.20;93.00
56478;DHT22;42382;53.210;5.772;2024-01-25T05:30:24;5.20;93.10
56478;DHT22;42382;53.210;5.772;2024-01-25T05:32:50;5.20;93.10
56478;DHT22;42382;53.210;5.772;2024-01-25T05:35:16;5.10;93.00
56478;DHT22;42382;53.210;5.772;2024-01-25T05:37:42;5.10;93.00
56478;DHT22;42382;53.210;5.772;2024-01-25T05:40:09;5.20;93.10
56478;DHT22;42382;53.210;5.772;2024-01-25T05:42:35;5.10;93.00
56478;DHT22;42382;53.210;5.772;2024-01-25T05:45:01;5.10;93.00
56478;DHT22;42382;53.210;5.772;2024-01-25T05:47:27;5.10;93.10
56478;DHT22;42382;53.210;5.772;2024-01-25T05:49:53;5.10;93.10
56478;DHT22;42382;53.210;5.772;2024-01-25T05:52:18;5.00;93.00
56478;DHT22;42382;53.210;5.772;2024-01-25T05:54:46;5.00;93.00
56478;DHT22;42382;53.210;5.772;2024-01-25T05:57:11;5.00;93.10
56478;DHT22;42382;53.210;5.772;2024-01-25T05:59:37;5.00;93.00
56478;DHT22;42382;53.210;5.772;2024-01-25T06:02:03;4.90;93.00
56478;DHT22;42382;53.210;5.772;2024-01-25T06:04:29;5.00;93.10
56478;DHT22;42382;53.210;5.772;2024-01-25T06:06:55;4.90;93.10
56478;DHT22;42382;53.210;5.772;2024-01-25T06:09:20;4.90;93.10
56478;DHT22;42382;53.210;5.772;2024-01-25T06:11:46;4.90;93.10
56478;DHT22;42382;53.210;5.772;2024-01-25T06:14:12;4.90;93.20
56478;DHT22;42382;53.210;5.772;2024-01-25T06:16:37;4.90;93.20
56478;DHT22;42382;53.210;5.772;2024-01-25T06:19:05;4.90;93.20
56478;DHT22;42382;53.210;5.772;2024-01-25T06:21:31;4.90;93.20
56478;DHT22;42382;53.210;5.772;2024-01-25T06:23:59;4.90;93.40
56478;DHT22;42382;53.210;5.772;2024-01-25T06:26:24;4.90;93.40
56478;DHT22;42382;53.210;5.772;2024-01-25T06:28:50;4.90;93.40
56478;DHT22;42382;53.210;5.772;2024-01-25T06:31:16;4.90;93.40
56478;DHT22;42382;53.210;5.772;2024-01-25T06:33:41;4.90;93.40
56478;DHT22;42382;53.210;5.772;2024-01-25T06:36:07;4.90;93.50
56478;DHT22;42382;53.210;5.772;2024-01-25T06:38:32;4.90;93.40
56478;DHT22;42382;53.210;5.772;2024-01-25T06:40:58;4.80;93.40
56478;DHT22;42382;53.210;5.772;2024-01-25T06:43:24;4.80;93.30
56478;DHT22;42382;53.210;5.772;2024-01-25T06:45:49;4.80;93.30
56478;DHT22;42382;53.210;5.772;2024-01-25T06:48:15;4.70;93.40
56478;DHT22;42382;53.210;5.772;2024-01-25T06:50:41;4.70;93.30
56478;DHT22;42382;53.210;5.772;2024-01-25T06:53:06;4.70;93.30
56478;DHT22;42382;53.210;5.772;2024-01-25T06:55:32;4.60;93.40
56478;DHT22;42382;53.210;5.772;2024-01-25T06:57:58;4.70;93.50
56478;DHT22;42382;53.210;5.772;2024-01-25T07:00:23;4.60;93.50
56478;DHT22;42382;53.210;5.772;2024-01-25T07:02:49;4.70;93.50
56478;DHT22;42382;53.210;5.772;2024-01-25T07:05:14;4.60;93.60
56478;DHT22;42382;53.210;5.772;2024-01-25T07:07:40;4.70;93.70
56478;DHT22;42382;53.210;5.772;2024-01-25T07:10:09;4.60;93.60
56478;DHT22;42382;53.210;5.772;2024-01-25T07:12:35;4.60;93.60
56478;DHT22;42382;53.210;5.772;2024-01-25T07:15:00;4.60;93.60
56478;DHT22;42382;53.210;5.772;2024-01-25T07:17:26;4.60;93.60
56478;DHT22;42382;53.210;5.772;2024-01-25T07:19:52;4.60;93.50
56478;DHT22;42382;53.210;5.772;2024-01-25T07:22:17;4.50;93.50
56478;DHT22;42382;53.210;5.772;2024-01-25T07:24:44;4.50;93.40
56478;DHT22;42382;53.210;5.772;2024-01-25T07:27:10;4.40;93.40
56478;DHT22;42382;53.210;5.772;2024-01-25T07:29:36;4.40;93.40
56478;DHT22;42382;53.210;5.772;2024-01-25T07:32:02;4.40;93.40
56478;DHT22;42382;53.210;5.772;2024-01-25T07:34:28;4.40;93.40
56478;DHT22;42382;53.210;5.772;2024-01-25T07:36:54;4.40;93.40
56478;DHT22;42382;53.210;5.772;2024-01-25T07:39:19;4.30;93.40
56478;DHT22;42382;53.210;5.772;2024-01-25T07:41:45;4.30;93.40
56478;DHT22;42382;53.210;5.772;2024-01-25T07:44:12;4.30;93.40
56478;DHT22;42382;53.210;5.772;2024-01-25T07:46:37;4.30;93.50
56478;DHT22;42382;53.210;5.772;2024-01-25T07:49:03;4.30;93.50
56478;DHT22;42382;53.210;5.772;2024-01-25T07:51:28;4.30;93.50
56478;DHT22;42382;53.210;5.772;2024-01-25T07:53:55;4.30;93.50
56478;DHT22;42382;53.210;5.772;2024-01-25T07:56:20;4.20;93.50
56478;DHT22;42382;53.210;5.772;2024-01-25T07:58:48;4.30;93.50
56478;DHT22;42382;53.210;5.772;2024-01-25T08:01:17;4.20;93.60
56478;DHT22;42382;53.210;5.772;2024-01-25T08:03:43;4.30;93.60
56478;DHT22;42382;53.210;5.772;2024-01-25T08:06:09;4.30;93.60
56478;DHT22;42382;53.210;5.772;2024-01-25T08:08:34;4.30;93.60
56478;DHT22;42382;53.210;5.772;2024-01-25T08:11:00;4.20;93.70
56478;DHT22;42382;53.210;5.772;2024-01-25T08:13:25;4.30;93.70
56478;DHT22;42382;53.210;5.772;2024-01-25T08:15:53;4.30;93.70
56478;DHT22;42382;53.210;5.772;2024-01-25T08:18:19;4.30;93.70
56478;DHT22;42382;53.210;5.772;2024-01-25T08:20:45;4.30;93.70
56478;DHT22;42382;53.210;5.772;2024-01-25T08:23:10;4.30;93.70
56478;DHT22;42382;53.210;5.772;2024-01-25T08:25:39;4.30;93.80
56478;DHT22;42382;53.210;5.772;2024-01-25T08:28:05;4.30;93.80
56478;DHT22;42382;53.210;5.772;2024-01-25T08:30:31;4.40;93.80
56478;DHT22;42382;53.210;5.772;2024-01-25T08:32:56;4.40;93.80
56478;DHT22;42382;53.210;5.772;2024-01-25T08:35:22;4.40;93.80
56478;DHT22;42382;53.210;5.772;2024-01-25T08:37:48;4.50;93.90
56478;DHT22;42382;53.210;5.772;2024-01-25T08:40:14;4.50;93.90
56478;DHT22;42382;53.210;5.772;2024-01-25T08:42:40;4.50;94.00
56478;DHT22;42382;53.210;5.772;2024-01-25T08:45:06;4.50;93.90
56478;DHT22;42382;53.210;5.772;2024-01-25T08:47:35;4.60;94.00
56478;DHT22;42382;53.210;5.772;2024-01-25T08:50:01;4.60;94.00
56478;DHT22;42382;53.210;5.772;2024-01-25T08:52:26;4.60;94.10
56478;DHT22;42382;53.210;5.772;2024-01-25T08:54:52;4.70;94.10
56478;DHT22;42382;53.210;5.772;2024-01-25T08:57:18;4.80;94.10
56478;DHT22;42382;53.210;5.772;2024-01-25T08:59:43;4.90;94.10
56478;DHT22;42382;53.210;5.772;2024-01-25T09:02:09;4.90;94.10
56478;DHT22;42382;53.210;5.772;2024-01-25T09:04:35;4.90;94.10
56478;DHT22;42382;53.210;5.772;2024-01-25T09:07:02;5.00;94.20
56478;DHT22;42382;53.210;5.772;2024-01-25T09:09:27;5.10;94.20
56478;DHT22;42382;53.210;5.772;2024-01-25T09:11:53;5.10;94.20
56478;DHT22;42382;53.210;5.772;2024-01-25T09:14:19;5.20;94.20
56478;DHT22;42382;53.210;5.772;2024-01-25T09:16:45;5.30;94.20
56478;DHT22;42382;53.210;5.772;2024-01-25T09:19:10;5.30;94.20
56478;DHT22;42382;53.210;5.772;2024-01-25T09:21:39;5.40;94.20
56478;DHT22;42382;53.210;5.772;2024-01-25T09:24:05;5.40;94.20
56478;DHT22;42382;53.210;5.772;2024-01-25T09:26:31;5.50;94.20
56478;DHT22;42382;53.210;5.772;2024-01-25T09:28:57;5.60;94.20
56478;DHT22;42382;53.210;5.772;2024-01-25T09:31:23;5.60;94.20
56478;DHT22;42382;53.210;5.772;2024-01-25T09:33:48;5.60;94.20
56478;DHT22;42382;53.210;5.772;2024-01-25T09:36:16;5.60;94.20
56478;DHT22;42382;53.210;5.772;2024-01-25T09:38:41;5.70;94.20
56478;DHT22;42382;53.210;5.772;2024-01-25T09:41:07;5.70;94.20
56478;DHT22;42382;53.210;5.772;2024-01-25T09:43:33;5.70;94.20
56478;DHT22;42382;53.210;5.772;2024-01-25T09:46:00;5.70;94.10
56478;DHT22;42382;53.210;5.772;2024-01-25T09:48:26;5.70;94.10
56478;DHT22;42382;53.210;5.772;2024-01-25T09:50:55;5.70;94.10
56478;DHT22;42382;53.210;5.772;2024-01-25T09:53:22;5.70;94.10
56478;DHT22;42382;53.210;5.772;2024-01-25T09:58:20;5.80;94.00
56478;DHT22;42382;53.210;5.772;2024-01-25T10:00:46;5.80;94.00
56478;DHT22;42382;53.210;5.772;2024-01-25T10:03:12;5.80;94.00
56478;DHT22;42382;53.210;5.772;2024-01-25T10:05:38;5.90;94.10
56478;DHT22;42382;53.210;5.772;2024-01-25T10:08:04;6.00;94.10
56478;DHT22;42382;53.210;5.772;2024-01-25T10:10:32;6.10;94.10
56478;DHT22;42382;53.210;5.772;2024-01-25T10:13:02;6.20;94.10
56478;DHT22;42382;53.210;5.772;2024-01-25T10:15:27;6.40;94.20
56478;DHT22;42382;53.210;5.772;2024-01-25T10:17:54;6.40;94.20
56478;DHT22;42382;53.210;5.772;2024-01-25T10:20:20;6.60;94.20
56478;DHT22;42382;53.210;5.772;2024-01-25T10:22:49;6.70;94.30
56478;DHT22;42382;53.210;5.772;2024-01-25T10:25:15;6.90;94.30
56478;DHT22;42382;53.210;5.772;2024-01-25T10:27:41;7.00;94.40
56478;DHT22;42382;53.210;5.772;2024-01-25T10:30:08;7.20;94.50
56478;DHT22;42382;53.210;5.772;2024-01-25T10:32:35;7.30;94.40
56478;DHT22;42382;53.210;5.772;2024-01-25T10:35:01;7.40;94.40
56478;DHT22;42382;53.210;5.772;2024-01-25T10:37:28;7.50;94.40
56478;DHT22;42382;53.210;5.772;2024-01-25T10:39:55;7.60;94.40
56478;DHT22;42382;53.210;5.772;2024-01-25T10:42:21;7.70;94.40
56478;DHT22;42382;53.210;5.772;2024-01-25T10:44:47;7.80;94.30
56478;DHT22;42382;53.210;5.772;2024-01-25T10:47:12;7.80;94.10
56478;DHT22;42382;53.210;5.772;2024-01-25T10:49:38;7.90;94.10
56478;DHT22;42382;53.210;5.772;2024-01-25T10:52:05;7.90;94.10
56478;DHT22;42382;53.210;5.772;2024-01-25T10:54:31;8.00;93.90
56478;DHT22;42382;53.210;5.772;2024-01-25T10:56:58;8.10;94.00
56478;DHT22;42382;53.210;5.772;2024-01-25T10:59:24;8.20;93.80
56478;DHT22;42382;53.210;5.772;2024-01-25T11:02:07;8.40;93.90
56478;DHT22;42382;53.210;5.772;2024-01-25T11:04:33;8.60;93.90
56478;DHT22;42382;53.210;5.772;2024-01-25T11:07:08;8.80;93.90
56478;DHT22;42382;53.210;5.772;2024-01-25T11:09:35;8.90;93.60
56478;DHT22;42382;53.210;5.772;2024-01-25T11:12:12;8.90;93.10
56478;DHT22;42382;53.210;5.772;2024-01-25T11:14:39;8.90;92.80
56478;DHT22;42382;53.210;5.772;2024-01-25T11:17:21;8.80;92.40
56478;DHT22;42382;53.210;5.772;2024-01-25T11:19:50;8.60;92.00
56478;DHT22;42382;53.210;5.772;2024-01-25T11:22:16;8.50;91.80
56478;DHT22;42382;53.210;5.772;2024-01-25T11:24:42;8.50;91.50
56478;DHT22;42382;53.210;5.772;2024-01-25T11:27:09;8.50;91.50
56478;DHT22;42382;53.210;5.772;2024-01-25T11:29:36;8.40;91.20
56478;DHT22;42382;53.210;5.772;2024-01-25T11:32:05;8.40;91.20
56478;DHT22;42382;53.210;5.772;2024-01-25T11:34:31;8.30;90.80
56478;DHT22;42382;53.210;5.772;2024-01-25T11:36:57;8.30;90.50
56478;DHT22;42382;53.210;5.772;2024-01-25T11:39:26;8.20;90.70
56478;DHT22;42382;53.210;5.772;2024-01-25T11:41:52;8.10;90.60
56478;DHT22;42382;53.210;5.772;2024-01-25T11:44:18;8.10;90.60
56478;DHT22;42382;53.210;5.772;2024-01-25T11:46:43;8.00;90.50
56478;DHT22;42382;53.210;5.772;2024-01-25T11:49:09;8.00;90.60
56478;DHT22;42382;53.210;5.772;2024-01-25T11:51:35;7.90;90.70
56478;DHT22;42382;53.210;5.772;2024-01-25T11:54:00;8.00;90.80
56478;DHT22;42382;53.210;5.772;2024-01-25T11:56:30;8.10;91.00
56478;DHT22;42382;53.210;5.772;2024-01-25T11:58:57;8.10;90.90
56478;DHT22;42382;53.210;5.772;2024-01-25T12:01:26;8.20;91.00
56478;DHT22;42382;53.210;5.772;2024-01-25T12:03:53;8.40;91.00
56478;DHT22;42382;53.210;5.772;2024-01-25T12:06:19;8.40;90.90
56478;DHT22;42382;53.210;5.772;2024-01-25T12:08:45;8.40;90.90
56478;DHT22;42382;53.210;5.772;2024-01-25T12:11:14;8.50;90.80
56478;DHT22;42382;53.210;5.772;2024-01-25T12:13:41;8.50;90.90
56478;DHT22;42382;53.210;5.772;2024-01-25T12:16:07;8.60;90.80
56478;DHT22;42382;53.210;5.772;2024-01-25T12:18:34;8.60;90.30
56478;DHT22;42382;53.210;5.772;2024-01-25T12:21:02;8.60;90.30
56478;DHT22;42382;53.210;5.772;2024-01-25T12:23:35;8.60;90.10
56478;DHT22;42382;53.210;5.772;2024-01-25T12:26:06;8.60;90.10
56478;DHT22;42382;53.210;5.772;2024-01-25T12:28:32;8.60;90.00
56478;DHT22;42382;53.210;5.772;2024-01-25T12:30:59;8.60;90.00
56478;DHT22;42382;53.210;5.772;2024-01-25T12:33:25;8.60;90.00
56478;DHT22;42382;53.210;5.772;2024-01-25T12:35:51;8.60;90.00
56478;DHT22;42382;53.210;5.772;2024-01-25T12:38:17;8.60;89.90
56478;DHT22;42382;53.210;5.772;2024-01-25T12:40:46;8.60;89.80
56478;DHT22;42382;53.210;5.772;2024-01-25T12:43:12;8.50;89.50
56478;DHT22;42382;53.210;5.772;2024-01-25T12:45:38;8.40;89.40
56478;DHT22;42382;53.210;5.772;2024-01-25T12:48:04;8.40;89.40
56478;DHT22;42382;53.210;5.772;2024-01-25T12:50:32;8.30;89.20
56478;DHT22;42382;53.210;5.772;2024-01-25T12:52:57;8.20;89.30
56478;DHT22;42382;53.210;5.772;2024-01-25T12:55:24;8.20;89.20
56478;DHT22;42382;53.210;5.772;2024-01-25T12:57:50;8.20;89.20
56478;DHT22;42382;53.210;5.772;2024-01-25T13:00:16;8.20;89.20
56478;DHT22;42382;53.210;5.772;2024-01-25T13:02:41;8.20;89.20
56478;DHT22;42382;53.210;5.772;2024-01-25T13:05:07;8.20;89.30
56478;DHT22;42382;53.210;5.772;2024-01-25T13:07:33;8.20;89.20
56478;DHT22;42382;53.210;5.772;2024-01-25T13:09:58;8.20;89.40
56478;DHT22;42382;53.210;5.772;2024-01-25T13:12:24;8.20;89.40
56478;DHT22;42382;53.210;5.772;2024-01-25T13:14:50;8.20;89.40
56478;DHT22;42382;53.210;5.772;2024-01-25T13:17:15;8.20;89.50
56478;DHT22;42382;53.210;5.772;2024-01-25T13:19:41;8.20;89.40
56478;DHT22;42382;53.210;5.772;2024-01-25T13:22:09;8.20;89.60
56478;DHT22;42382;53.210;5.772;2024-01-25T13:24:35;8.20;89.60
56478;DHT22;42382;53.210;5.772;2024-01-25T13:27:00;8.30;89.60
56478;DHT22;42382;53.210;5.772;2024-01-25T13:29:26;8.30;89.60
56478;DHT22;42382;53.210;5.772;2024-01-25T13:31:51;8.20;89.50
56478;DHT22;42382;53.210;5.772;2024-01-25T13:34:17;8.20;89.70
56478;DHT22;42382;53.210;5.772;2024-01-25T13:36:43;8.10;89.70
56478;DHT22;42382;53.210;5.772;2024-01-25T13:39:08;8.10;89.70
56478;DHT22;42382;53.210;5.772;2024-01-25T13:41:35;8.10;89.70
56478;DHT22;42382;53.210;5.772;2024-01-25T13:44:01;8.10;89.80
56478;DHT22;42382;53.210;5.772;2024-01-25T13:46:26;8.10;89.80
56478;DHT22;42382;53.210;5.772;2024-01-25T13:48:52;8.10;89.60
56478;DHT22;42382;53.210;5.772;2024-01-25T13:51:17;8.10;89.70
56478;DHT22;42382;53.210;5.772;2024-01-25T13:53:43;8.10;89.60
56478;DHT22;42382;53.210;5.772;2024-01-25T13:56:09;8.00;89.80
56478;DHT22;42382;53.210;5.772;2024-01-25T13:58:35;8.10;89.60
56478;DHT22;42382;53.210;5.772;2024-01-25T14:01:01;8.10;89.50
56478;DHT22;42382;53.210;5.772;2024-01-25T14:03:26;8.10;89.30
56478;DHT22;42382;53.210;5.772;2024-01-25T14:05:52;8.00;89.30
56478;DHT22;42382;53.210;5.772;2024-01-25T14:08:17;8.00;89.10
56478;DHT22;42382;53.210;5.772;2024-01-25T14:10:43;8.00;89.00
56478;DHT22;42382;53.210;5.772;2024-01-25T14:13:08;8.00;88.90
56478;DHT22;42382;53.210;5.772;2024-01-25T14:15:34;8.00;89.00
56478;DHT22;42382;53.210;5.772;2024-01-25T14:18:00;8.00;89.00
56478;DHT22;42382;53.210;5.772;2024-01-25T14:20:25;7.90;88.90
56478;DHT22;42382;53.210;5.772;2024-01-25T14:22:51;7.90;88.90
56478;DHT22;42382;53.210;5.772;2024-01-25T14:25:17;7.90;88.80
56478;DHT22;42382;53.210;5.772;2024-01-25T14:27:42;7.90;88.80
56478;DHT22;42382;53.210;5.772;2024-01-25T14:30:08;7.90;88.80
56478;DHT22;42382;53.210;5.772;2024-01-25T14:32:34;7.90;88.70
56478;DHT22;42382;53.210;5.772;2024-01-25T14:34:59;7.90;88.70
56478;DHT22;42382;53.210;5.772;2024-01-25T14:37:25;7.90;88.60
56478;DHT22;42382;53.210;5.772;2024-01-25T14:39:50;7.90;88.50
56478;DHT22;42382;53.210;5.772;2024-01-25T14:42:16;7.90;88.30
56478;DHT22;42382;53.210;5.772;2024-01-25T14:44:45;7.90;88.30
56478;DHT22;42382;53.210;5.772;2024-01-25T14:47:10;7.80;88.20
56478;DHT22;42382;53.210;5.772;2024-01-25T14:49:37;7.80;88.10
56478;DHT22;42382;53.210;5.772;2024-01-25T14:52:03;7.80;88.20
56478;DHT22;42382;53.210;5.772;2024-01-25T14:54:29;7.80;88.20
56478;DHT22;42382;53.210;5.772;2024-01-25T14:56:54;7.80;88.40
56478;DHT22;42382;53.210;5.772;2024-01-25T14:59:20;7.70;88.30
56478;DHT22;42382;53.210;5.772;2024-01-25T15:01:49;7.70;88.20
56478;DHT22;42382;53.210;5.772;2024-01-25T15:04:17;7.70;88.40
56478;DHT22;42382;53.210;5.772;2024-01-25T15:06:43;7.60;88.50
56478;DHT22;42382;53.210;5.772;2024-01-25T15:09:09;7.60;88.40
56478;DHT22;42382;53.210;5.772;2024-01-25T15:11:35;7.60;88.40
56478;DHT22;42382;53.210;5.772;2024-01-25T15:14:01;7.60;88.50
56478;DHT22;42382;53.210;5.772;2024-01-25T15:16:26;7.60;88.40
56478;DHT22;42382;53.210;5.772;2024-01-25T15:18:54;7.60;88.20
56478;DHT22;42382;53.210;5.772;2024-01-25T15:21:19;7.60;88.30
56478;DHT22;42382;53.210;5.772;2024-01-25T15:23:45;7.60;88.60
56478;DHT22;42382;53.210;5.772;2024-01-25T15:26:11;7.60;88.30
56478;DHT22;42382;53.210;5.772;2024-01-25T15:28:39;7.50;88.40
56478;DHT22;42382;53.210;5.772;2024-01-25T15:31:05;7.60;88.40
56478;DHT22;42382;53.210;5.772;2024-01-25T15:33:30;7.60;88.40
56478;DHT22;42382;53.210;5.772;2024-01-25T15:35:56;7.60;88.40
56478;DHT22;42382;53.210;5.772;2024-01-25T15:38:22;7.60;88.30
56478;DHT22;42382;53.210;5.772;2024-01-25T15:40:47;7.60;88.20